• Join FlightAware (Why Join?)
  • Login
  • US Flag 
10:34PM EDT


 

Airport Tracker/Info


-or-


 

Live Flight TrackerFlight Track Log ✈ RPA3247 ✈ 25-Apr-2013 ✈ KDCA - KMSY

Flight Track Log - Related Links

Times and Time Zones

All times are in EDT time to prevent confusion due to time zone crossing. See the RPA3247 flight status page for this flight to view local times or setup timezone preferences in your user account.

Time Position Orientation Groundspeed Altitude Reporting Facility
EDT Latitude Longitude Course Direction KTS MPH feet Rate Location/Type
08:06PM 38.8167 -77.0333 233° Southwest 162 186 1,700  Level Potomac TRACON
08:07PM 38.7500 -77.0333 180° South 243 280 3,600 1,620 Climbing Potomac TRACON
08:08PM 38.6852 -77.3463 237° Southwest  Level FlightAware Approximate
08:08PM 38.7333 -77.1167 256° West 256 295 5,000  Level Potomac TRACON
08:09PM 38.6266 -77.4494 234° Southwest  Level FlightAware Approximate
08:09PM 38.7167 -77.2000 256° West 253 291 5,300  Level Potomac TRACON
08:10PM 38.5841 -77.5642 247° West  Level FlightAware Approximate
08:10PM 38.7000 -77.3000 258° West 258 297 8,800  Level Potomac TRACON
08:11PM 38.5279 -77.6702 233° Southwest  Level FlightAware Approximate
08:11PM 38.6667 -77.3833 243° Southwest 269 310 11,200  Level Potomac TRACON
08:12PM 38.6333 -77.4667 243° Southwest 295 339 13,400 2,280 Climbing Potomac TRACON
08:13PM 38.6019 -77.5203 233° Southwest 299 344 14,900 2,280 Climbing Washington Center
08:14PM 38.5608 -77.6147 241° Southwest 309 356 17,400 2,100 Climbing Washington Center
08:15PM 38.5111 -77.7169 238° Southwest 309 356 19,200 1,800 Climbing Washington Center
08:16PM 38.4656 -77.8086 238° Southwest 309 356 21,000 900 Climbing Washington Center
08:17PM 38.4158 -77.9025 236° Southwest 315 362 21,000  Level Washington Center
08:18PM 38.3681 -77.9936 236° Southwest 320 368 21,100 900 Climbing Washington Center
08:19PM 38.3206 -78.0847 236° Southwest 320 368 22,800 1,620 Climbing Washington Center
08:20PM 38.2706 -78.1808 236° Southwest 320 368 24,400 1,500 Climbing Washington Center
08:21PM 38.2203 -78.2769 236° Southwest 325 374 25,900 1,380 Climbing Washington Center
08:22PM 38.1681 -78.3728 235° Southwest 325 374 27,200 1,200 Climbing Washington Center
08:23PM 38.1178 -78.4739 238° Southwest 330 380 28,400 1,140 Climbing Washington Center
08:24PM 38.0839 -78.5833 249° West 330 380 29,500 900 Climbing Washington Center
08:25PM 38.0456 -78.6925 246° West 336 387 30,300 840 Climbing Washington Center
08:26PM 38.0072 -78.8069 247° West 341 392 31,200 840 Climbing Washington Center
08:27PM 37.9708 -78.9161 247° West 346 398 32,000 360 Climbing Washington Center
08:28PM 37.9347 -79.0172 246° West 353 406 32,000  Level Washington Center
08:29PM 37.8939 -79.1283 245° Southwest 353 406 32,000  Level Washington Center
08:30PM 37.8428 -79.2339 239° Southwest 353 406 32,000  Level Washington Center
08:31PM 37.7869 -79.3467 238° Southwest 358 412 32,000 420 Level Washington Center
08:32PM 37.7336 -79.4492 237° Southwest 358 412 32,900 720 Climbing Washington Center
08:33PM 37.6825 -79.5517 238° Southwest 358 412 33,500 540 Climbing Washington Center
08:34PM 37.6333 -79.6461 237° Southwest 358 412 34,000 240 Climbing Washington Center
08:35PM 37.5775 -79.7583 238° Southwest 358 412 34,000  Level Washington Center
08:36PM 37.5233 -79.8681 238° Southwest 358 412 34,000  Level Washington Center
08:37PM 37.4717 -79.9697 237° Southwest 358 412 34,000  Level Washington Center
08:39PM 37.3808 -80.1422 237° Southwest 358 412 34,000  Level Atlanta Center
08:40PM 37.3278 -80.2442 237° Southwest 358 412 34,000  Level Atlanta Center
08:41PM 37.2767 -80.3431 237° Southwest 353 406 34,000  Level Atlanta Center
08:42PM 37.2194 -80.4528 237° Southwest 353 406 34,000  Level Atlanta Center
08:43PM 37.1681 -80.5539 237° Southwest 353 406 34,000  Level Atlanta Center
08:44PM 37.1147 -80.6553 237° Southwest 353 406 34,000  Level Atlanta Center
08:45PM 37.0675 -80.7614 241° Southwest 353 406 34,000  Level Atlanta Center
08:46PM 37.0344 -80.8536 246° West 342 394 34,000  Level Atlanta Center
08:47PM 36.9978 -80.9617 247° West 336 387 34,000  Level Atlanta Center
08:48PM 36.9586 -81.0672 245° Southwest 336 387 34,000  Level Atlanta Center
08:49PM 36.9217 -81.1750 247° West 341 392 34,000  Level Atlanta Center
08:50PM 36.8783 -81.2933 245° Southwest 341 392 34,000  Level Atlanta Center
08:51PM 36.8411 -81.3983 246° West 341 392 34,000  Level Atlanta Center
08:52PM 36.8017 -81.5058 245° Southwest 341 392 34,000  Level Atlanta Center
08:53PM 36.7642 -81.6158 247° West 341 392 34,000  Level Atlanta Center
08:54PM 36.7267 -81.7208 246° West 336 387 34,000  Level Atlanta Center
08:55PM 36.6850 -81.8306 245° Southwest 341 392 34,000  Level Atlanta Center
08:56PM 36.6450 -81.9403 246° West 341 392 34,000  Level Atlanta Center
08:57PM 36.6053 -82.0475 245° Southwest 347 399 34,000  Level Atlanta Center
08:58PM 36.5653 -82.1569 246° West 347 399 34,000  Level Atlanta Center
08:59PM 36.5231 -82.2664 244° Southwest 347 399 34,000  Level Atlanta Center
09:00PM 36.4828 -82.3758 245° Southwest 347 399 34,000  Level Atlanta Center
09:01PM 36.4428 -82.4878 246° West 347 399 34,000  Level Atlanta Center
09:02PM 36.4042 -82.5864 244° Southwest 352 405 34,000  Level Atlanta Center
09:03PM 36.3617 -82.6981 245° Southwest 352 405 34,000  Level Atlanta Center
09:04PM 36.3211 -82.8069 245° Southwest 357 411 34,000  Level Atlanta Center
09:05PM 36.2783 -82.9158 244° Southwest 357 411 34,000  Level Atlanta Center
09:06PM 36.2397 -83.0219 246° West 357 411 34,000  Level Atlanta Center
09:07PM 36.1989 -83.1306 245° Southwest 352 405 34,000  Level Atlanta Center
09:08PM 36.1558 -83.2417 244° Southwest 352 405 34,000  Level Atlanta Center
09:09PM 36.1169 -83.3472 246° West 347 399 34,000  Level Atlanta Center
09:10PM 36.0756 -83.4556 245° Southwest 347 399 34,000  Level Atlanta Center
09:11PM 36.0344 -83.5611 244° Southwest 342 394 34,000  Level Atlanta Center
09:12PM 35.9950 -83.6667 245° Southwest 342 394 34,000  Level Atlanta Center
09:13PM 35.9536 -83.7719 244° Southwest 342 394 34,000  Level Atlanta Center
09:14PM 35.9100 -83.8797 243° Southwest 342 394 34,000  Level Atlanta Center
09:15PM 35.8456 -83.9772 231° Southwest 357 411 34,000  Level Atlanta Center
09:16PM 35.7789 -84.0744 230° Southwest 370 426 34,000  Level Atlanta Center
09:17PM 35.7097 -84.1692 228° Southwest 375 432 34,000  Level Atlanta Center
09:18PM 35.6408 -84.2636 228° Southwest 381 438 34,000  Level Atlanta Center
09:19PM 35.5739 -84.3581 229° Southwest 381 438 34,000  Level Atlanta Center
09:20PM 35.5047 -84.4544 229° Southwest 381 438 34,000  Level Atlanta Center
09:21PM 35.4356 -84.5461 227° Southwest 381 438 34,000  Level Atlanta Center
09:22PM 35.3706 -84.6397 230° Southwest 381 438 34,000  Level Atlanta Center
09:23PM 35.2947 -84.7411 228° Southwest 381 438 34,000  Level Atlanta Center
09:24PM 35.2275 -84.8344 229° Southwest 381 438 34,000  Level Atlanta Center
09:25PM 35.1581 -84.9281 228° Southwest 376 433 34,000  Level Atlanta Center
09:26PM 35.0906 -85.0211 228° Southwest 376 433 34,000  Level Atlanta Center
09:27PM 35.0231 -85.1117 228° Southwest 371 427 34,000  Level Atlanta Center
09:28PM 34.9553 -85.2044 228° Southwest 371 427 34,000  Level Atlanta Center
09:29PM 34.8878 -85.2972 228° Southwest 371 427 34,000  Level Atlanta Center
09:30PM 34.8178 -85.3897 227° Southwest 371 427 34,000  Level Atlanta Center
09:31PM 34.7500 -85.4797 228° Southwest 371 427 34,000  Level Atlanta Center
09:32PM 34.6842 -85.5694 228° Southwest 366 421 34,000  Level Atlanta Center
09:33PM 34.6164 -85.6617 228° Southwest 366 421 34,000  Level Atlanta Center
09:34PM 34.5461 -85.7536 227° Southwest 371 427 34,000  Level Atlanta Center
09:35PM 34.4844 -85.8331 227° Southwest 371 427 34,000  Level Atlanta Center
09:36PM 34.4186 -85.9222 228° Southwest 371 427 34,000  Level Atlanta Center
09:37PM 34.3483 -86.0139 227° Southwest 371 427 34,000  Level Atlanta Center
09:38PM 34.2800 -86.1053 228° Southwest 371 427 34,000  Level Atlanta Center
09:39PM 34.2117 -86.1942 227° Southwest 371 427 34,000  Level Atlanta Center
09:40PM 34.1453 -86.2828 228° Southwest 371 427 34,000  Level Atlanta Center
09:41PM 34.0769 -86.3711 227° Southwest 371 427 34,000  Level Atlanta Center
09:42PM 34.0064 -86.4619 227° Southwest 371 427 34,000  Level Atlanta Center
09:43PM 33.9378 -86.5503 227° Southwest 371 427 34,000  Level Atlanta Center
09:44PM 33.8669 -86.6406 227° Southwest 371 427 34,000  Level Atlanta Center
09:45PM 33.8003 -86.7286 228° Southwest 366 421 34,000  Level Atlanta Center
09:46PM 33.7294 -86.8189 227° Southwest 366 421 34,000  Level Atlanta Center
09:47PM 33.6628 -86.9089 228° Southwest 366 421 34,000  Level Atlanta Center
09:48PM 33.6000 -87.0017 231° Southwest 366 421 34,000  Level Atlanta Center
09:49PM 33.5372 -87.0967 232° Southwest 366 421 34,000  Level Atlanta Center
09:50PM 33.4742 -87.1942 232° Southwest 366 421 34,000  Level Atlanta Center
09:52PM 33.3219 -87.4186 231° Southwest 363 418 34,000  Level Memphis Center
09:53PM 33.2592 -87.5128 231° Southwest 363 418 34,000  Level Memphis Center
09:54PM 33.1967 -87.6092 232° Southwest 368 423 34,000  Level Memphis Center
09:55PM 33.1319 -87.7003 230° Southwest 368 423 34,000  Level Memphis Center
09:56PM 33.0692 -87.7939 231° Southwest 368 423 34,000  Level Memphis Center
09:57PM 33.0064 -87.8875 231° Southwest 368 423 34,000  Level Memphis Center
09:58PM 32.9539 -87.9756 235° Southwest 368 423 34,000  Level Memphis Center
09:59PM 32.8889 -88.0689 230° Southwest 368 423 34,000  Level Memphis Center
10:00PM 32.8194 -88.1572 227° Southwest 368 423 34,000  Level Memphis Center
10:01PM 32.7436 -88.2431 224° Southwest 373 429 34,000  Level Memphis Center
10:02PM 32.6700 -88.3311 225° Southwest 379 436 34,000  Level Memphis Center
10:03PM 32.5961 -88.4192 225° Southwest 379 436 34,000  Level Memphis Center
10:04PM 32.5225 -88.5044 224° Southwest 379 436 34,000  Level Memphis Center
10:05PM 32.4506 -88.5922 226° Southwest 379 436 34,000  Level Memphis Center
10:06PM 32.3744 -88.6797 224° Southwest 379 436 34,000  Level Memphis Center
10:07PM 32.3006 -88.7647 224° Southwest 374 430 34,000  Level Memphis Center
10:08PM 32.2264 -88.8519 225° Southwest 374 430 34,000  Level Memphis Center
10:09PM 32.1503 -88.9392 224° Southwest 380 437 34,000  Level Memphis Center
10:10PM 32.0739 -89.0261 224° Southwest 380 437 34,000  Level Memphis Center
10:11PM 31.9997 -89.1131 225° Southwest 380 437 34,000  Level Memphis Center
10:12PM 31.9233 -89.2022 225° Southwest 380 437 34,000 -1,320 Level Memphis Center
10:14PM 31.7417 -89.4067 224° Southwest 388 447 29,600 -1,800 Descending Houston Center
10:15PM 31.6656 -89.4917 224° Southwest 379 436 28,000 -840 Descending Houston Center
10:16PM 31.5719 -89.5811 219° Southwest 377 434 28,000  Level Houston Center
10:17PM 31.4906 -89.6583 219° Southwest 378 435 28,000  Level Houston Center
10:18PM 31.4050 -89.7308 216° Southwest 380 437 28,000 -600 Level Houston Center
10:19PM 31.3056 -89.7842 205° Southwest 391 450 26,900 -1,620 Descending Houston Center
10:20PM 31.2075 -89.8394 206° Southwest 392 451 24,800 -2,040 Descending Houston Center
10:21PM 31.1114 -89.8914 205° Southwest 382 440 22,800 -1,980 Descending Houston Center
10:22PM 31.0172 -89.9428 205° Southwest 376 433 20,800 -2,160 Descending Houston Center
10:23PM 30.9475 -89.9819 206° Southwest 372 428 19,400 -1,920 Descending Houston Center
10:23PM 30.9256 -89.9939 205° Southwest 367 422 18,900 -1,980 Descending Houston Center
10:24PM 30.8756 -90.0214 205° Southwest 362 417 17,800 -1,980 Descending Houston Center
10:24PM 30.8317 -90.0439 204° Southwest 370 426 16,900 -2,160 Descending Houston Center
10:25PM 30.7894 -90.0661 204° Southwest 374 430 15,900 -2,400 Descending Houston Center
10:25PM 30.7203 -90.1053 206° Southwest 371 427 14,500 -1,800 Descending Houston Center
10:26PM 30.6950 -90.1186 204° Southwest 370 426 14,100 -1,620 Descending Houston Center
10:26PM 30.6297 -90.1503 203° Southwest 358 412 12,900 -1,500 Descending Houston Center
10:27PM 30.6064 -90.1583 197° South 342 394 12,600 -1,140 Descending Houston Center
10:28PM 30.5478 -90.1850 201° Southwest 323 372 11,800 -1,560 Descending Houston Center
10:29PM 30.4494 -90.2253 199° South 286 329 9,500 -1,800 Descending Houston Center
10:30PM 30.3836 -90.2519 199° South 280 322 7,900 -1,680 Descending Houston Center
10:31PM 30.3261 -90.2772 201° Southwest 280 322 6,600 -1,800 Descending Houston Center
10:32PM 30.2328 -90.3158 200° South 275 316 4,300 -1,620 Descending Houston Center
10:33PM 30.1836 -90.3372 201° Southwest 274 315 3,400 -900 Descending Houston Center
10:34PM 30.1100 -90.3722 202° Southwest 252 290 2,600 -720 Descending Houston Center
10:35PM 30.0628 -90.3950 203° Southwest 209 241 2,000 -600 Descending Houston Center